createdAt,value
2023-05-22T00:00:22.449Z,9.75
2023-05-22T00:02:24.350Z,9.85
2023-05-22T00:04:29.975Z,8.77
2023-05-22T00:06:34.114Z,8.95
2023-05-22T00:08:35.967Z,11.75
2023-05-22T00:10:38.923Z,8.95
2023-05-22T00:12:43.752Z,8.43
2023-05-22T00:14:45.361Z,9.20
2023-05-22T00:16:49.205Z,9.57
2023-05-22T00:18:50.855Z,9.25
2023-05-22T00:20:53.509Z,9.15
2023-05-22T00:22:56.974Z,9.43
2023-05-22T00:24:58.647Z,8.85
2023-05-22T00:27:00.489Z,8.93
2023-05-22T00:29:02.288Z,8.60
2023-05-22T00:31:04.193Z,11.10
2023-05-22T00:33:06.285Z,9.15
2023-05-22T00:35:08.865Z,10.45
2023-05-22T00:37:10.921Z,8.00
2023-05-22T00:39:12.688Z,9.23
2023-05-22T00:41:14.622Z,9.13
2023-05-22T00:43:17.625Z,9.63
2023-05-22T00:45:19.295Z,9.07
2023-05-22T00:47:23.873Z,10.52
2023-05-22T00:49:25.954Z,9.50
2023-05-22T00:51:27.907Z,9.30
2023-05-22T00:53:31.078Z,9.00
2023-05-22T00:55:33.451Z,8.80
2023-05-22T00:57:36.453Z,9.05
2023-05-22T00:59:38.121Z,9.50
2023-05-22T01:01:42.782Z,11.02
2023-05-22T01:03:45.863Z,10.13
2023-05-22T01:05:48.151Z,8.40
2023-05-22T01:07:49.649Z,9.07
2023-05-22T01:09:52.622Z,8.60
2023-05-22T01:12:10.746Z,8.88
2023-05-22T01:14:40.138Z,10.25
2023-05-22T01:16:59.772Z,8.45
2023-05-22T01:19:26.179Z,9.85
2023-05-22T01:21:46.241Z,8.85
2023-05-22T01:24:16.121Z,10.30
2023-05-22T01:26:45.932Z,8.90
2023-05-22T01:29:15.048Z,9.65
2023-05-22T01:31:19.144Z,9.27
2023-05-22T01:33:26.100Z,8.48
2023-05-22T01:35:28.629Z,8.40
2023-05-22T01:37:31.589Z,9.10
2023-05-22T01:39:36.440Z,8.65
2023-05-22T01:41:40.553Z,10.27
2023-05-22T01:43:42.428Z,9.18
2023-05-22T01:45:43.951Z,9.05
2023-05-22T01:47:45.813Z,8.90
2023-05-22T01:49:48.947Z,8.88
2023-05-22T01:51:57.548Z,9.57
2023-05-22T01:53:58.986Z,9.20
2023-05-22T01:56:07.799Z,9.18
2023-05-22T01:58:15.029Z,10.02
2023-05-22T02:00:21.483Z,8.93
2023-05-22T02:02:27.467Z,8.98
2023-05-22T02:04:34.141Z,9.15
2023-05-22T02:06:37.074Z,9.05
2023-05-22T02:08:41.007Z,9.60
2023-05-22T02:10:56.763Z,9.60
2023-05-22T02:12:58.596Z,10.68
2023-05-22T02:15:01.932Z,11.38
2023-05-22T02:17:05.479Z,10.88
2023-05-22T02:19:08.012Z,9.32
2023-05-22T02:21:10.463Z,10.10
2023-05-22T02:23:12.161Z,11.48
2023-05-22T02:25:15.225Z,9.35
2023-05-22T02:27:17.443Z,9.43
2023-05-22T02:29:19.340Z,9.80
2023-05-22T02:31:21.010Z,10.27
2023-05-22T02:33:22.620Z,8.55
2023-05-22T02:35:25.122Z,11.05
2023-05-22T02:37:27.242Z,9.05
2023-05-22T02:39:30.258Z,9.65
2023-05-22T02:41:31.990Z,9.02
2023-05-22T02:43:35.940Z,9.65
2023-05-22T02:45:40.632Z,9.25
2023-05-22T02:47:42.282Z,8.93
2023-05-22T02:49:45.148Z,9.38
2023-05-22T02:51:48.017Z,9.38
2023-05-22T02:53:51.978Z,9.18
2023-05-22T02:55:53.595Z,9.60
2023-05-22T02:58:00.529Z,9.40
2023-05-22T03:00:06.284Z,9.68
2023-05-22T03:02:08.144Z,10.68
2023-05-22T03:04:10.229Z,9.13
2023-05-22T03:06:12.228Z,9.10
2023-05-22T03:08:15.902Z,9.52
2023-05-22T03:10:17.547Z,8.68
2023-05-22T03:12:19.527Z,8.98
2023-05-22T03:14:21.551Z,10.20
2023-05-22T03:16:23.383Z,9.15
2023-05-22T03:18:27.477Z,8.85
2023-05-22T03:20:33.994Z,9.50
2023-05-22T03:22:36.374Z,8.60
2023-05-22T03:24:38.181Z,9.35
2023-05-22T03:26:39.753Z,8.88
2023-05-22T03:28:44.347Z,11.10
2023-05-22T03:30:46.674Z,9.27
2023-05-22T03:33:11.735Z,10.68
2023-05-22T03:35:19.560Z,9.63
2023-05-22T03:37:21.287Z,9.50
2023-05-22T03:39:23.746Z,9.52
2023-05-22T03:41:33.509Z,9.48
2023-05-22T03:43:35.389Z,9.27
2023-05-22T03:45:37.008Z,9.45
2023-05-22T03:47:39.030Z,9.35
2023-05-22T03:49:40.642Z,9.85
2023-05-22T03:51:42.337Z,9.65
2023-05-22T03:53:48.290Z,10.07
2023-05-22T03:55:50.144Z,9.77
2023-05-22T03:57:51.674Z,10.07
2023-05-22T03:59:53.299Z,10.10
2023-05-22T04:01:58.128Z,10.77
2023-05-22T04:03:59.784Z,11.00
2023-05-22T04:06:01.573Z,10.63
2023-05-22T04:08:03.239Z,10.40
2023-05-22T04:10:05.370Z,10.60
2023-05-22T04:12:08.033Z,10.10
2023-05-22T04:14:10.199Z,10.02
2023-05-22T04:16:12.171Z,10.80
2023-05-22T04:18:14.485Z,10.75
2023-05-22T04:20:16.272Z,10.15
2023-05-22T04:22:20.841Z,11.98
2023-05-22T04:24:23.244Z,12.52
2023-05-22T04:26:26.031Z,11.32
2023-05-22T04:28:27.823Z,13.80
2023-05-22T04:30:37.689Z,11.27
2023-05-22T04:32:40.989Z,10.77
2023-05-22T04:34:42.956Z,10.35
2023-05-22T04:36:48.029Z,11.18
2023-05-22T04:38:50.288Z,12.30
2023-05-22T04:40:53.063Z,11.25
2023-05-22T04:42:54.808Z,11.25
2023-05-22T04:44:58.751Z,13.20
2023-05-22T04:47:06.835Z,10.73
2023-05-22T04:49:09.367Z,11.55
2023-05-22T04:51:11.025Z,10.90
2023-05-22T04:53:12.790Z,11.27
2023-05-22T04:55:17.260Z,11.35
2023-05-22T04:57:19.438Z,11.35
2023-05-22T04:59:23.391Z,11.23
2023-05-22T05:01:27.744Z,10.50
2023-05-22T05:03:29.884Z,10.65
2023-05-22T05:05:36.520Z,11.35
2023-05-22T05:07:43.529Z,11.27
2023-05-22T05:09:45.377Z,12.10
2023-05-22T05:11:47.202Z,11.52
2023-05-22T05:13:48.868Z,12.57
2023-05-22T05:15:50.618Z,12.02
2023-05-22T05:17:52.320Z,11.38
2023-05-22T05:19:54.011Z,11.60
2023-05-22T05:21:55.678Z,11.63
2023-05-22T05:23:57.702Z,11.60
2023-05-22T05:26:01.236Z,12.57
2023-05-22T05:28:03.507Z,10.77
2023-05-22T05:30:05.848Z,11.10
2023-05-22T05:32:19.013Z,12.07
2023-05-22T05:34:41.448Z,11.55
2023-05-22T05:36:57.208Z,11.85
2023-05-22T05:38:59.114Z,12.57
2023-05-22T05:41:01.512Z,12.05
2023-05-22T05:43:06.301Z,12.20
2023-05-22T05:45:11.236Z,12.52
2023-05-22T05:47:17.574Z,13.90
2023-05-22T05:49:20.118Z,12.95
2023-05-22T05:51:23.902Z,11.95
2023-05-22T05:53:25.650Z,13.27
2023-05-22T05:55:34.454Z,10.77
2023-05-22T05:57:39.485Z,11.48
2023-05-22T05:59:43.858Z,11.52
2023-05-22T06:02:04.390Z,12.82
2023-05-22T06:04:09.175Z,11.93
2023-05-22T06:06:14.071Z,11.10
2023-05-22T06:08:52.482Z,11.98
2023-05-22T06:11:01.427Z,12.80
2023-05-22T06:13:09.950Z,11.23
2023-05-22T06:15:13.681Z,11.88
2023-05-22T06:17:16.214Z,10.13
2023-05-22T06:19:22.427Z,10.95
2023-05-22T06:21:24.734Z,11.27
2023-05-22T06:23:26.729Z,10.75
2023-05-22T06:25:30.372Z,11.25
2023-05-22T06:27:33.102Z,11.23
2023-05-22T06:29:35.676Z,10.07
2023-05-22T06:31:39.217Z,9.93
2023-05-22T06:33:43.384Z,10.32
2023-05-22T06:35:53.975Z,10.43
2023-05-22T06:37:57.921Z,10.80
2023-05-22T06:40:01.710Z,10.73
2023-05-22T06:42:13.448Z,9.30
2023-05-22T06:44:33.912Z,9.10
2023-05-22T06:46:39.410Z,9.20
2023-05-22T06:48:41.941Z,8.52
2023-05-22T06:50:48.330Z,8.90
2023-05-22T06:52:50.223Z,9.18
2023-05-22T06:54:54.302Z,8.65
2023-05-22T06:56:57.688Z,9.07
2023-05-22T06:59:01.975Z,9.23
2023-05-22T07:01:23.329Z,8.43
2023-05-22T07:03:36.684Z,9.13
2023-05-22T07:05:57.844Z,8.80
2023-05-22T07:07:59.752Z,8.25
2023-05-22T07:10:01.534Z,7.85
2023-05-22T07:12:03.524Z,8.15
2023-05-22T07:14:08.810Z,8.45
2023-05-22T07:16:12.805Z,8.20
2023-05-22T07:18:15.384Z,8.32
2023-05-22T07:20:18.039Z,8.18
2023-05-22T07:22:28.585Z,9.32
2023-05-22T07:24:31.842Z,7.70
2023-05-22T07:26:36.656Z,8.07
2023-05-22T07:28:42.991Z,8.05
2023-05-22T07:30:48.807Z,7.40
2023-05-22T07:32:50.749Z,7.63
2023-05-22T07:34:53.922Z,7.85
2023-05-22T07:36:55.507Z,7.85
2023-05-22T07:38:57.906Z,6.78
2023-05-22T07:41:04.814Z,7.25
2023-05-22T07:43:12.744Z,7.55
2023-05-22T07:45:15.112Z,7.85
2023-05-22T07:47:17.083Z,7.85
2023-05-22T07:49:20.353Z,7.18
2023-05-22T07:51:22.246Z,6.95
2023-05-22T07:53:26.178Z,7.75
2023-05-22T07:55:31.264Z,7.07
2023-05-22T07:57:36.241Z,7.63
2023-05-22T07:59:46.084Z,7.28
2023-05-22T08:01:47.622Z,7.15
2023-05-22T08:03:49.784Z,7.60
2023-05-22T08:05:51.788Z,7.45
2023-05-22T08:07:53.341Z,7.45
2023-05-22T08:09:54.917Z,7.60
2023-05-22T08:11:56.652Z,7.43
2023-05-22T08:13:58.255Z,7.20
2023-05-22T08:16:01.367Z,6.95
2023-05-22T08:18:03.487Z,7.38
2023-05-22T08:20:06.654Z,7.45
2023-05-22T08:22:08.602Z,7.25
2023-05-22T08:24:10.463Z,7.20
2023-05-22T08:26:12.098Z,7.30
2023-05-22T08:28:13.679Z,7.15
2023-05-22T08:30:15.299Z,6.95
2023-05-22T08:32:17.109Z,7.38
2023-05-22T08:34:18.874Z,7.60
2023-05-22T08:36:23.421Z,7.45
2023-05-22T08:38:24.995Z,7.30
2023-05-22T08:40:37.731Z,7.53
2023-05-22T08:42:42.661Z,7.55
2023-05-22T08:44:44.423Z,7.45
2023-05-22T08:46:47.370Z,7.53
2023-05-22T08:48:49.381Z,7.30
2023-05-22T08:51:02.775Z,7.55
2023-05-22T08:53:08.049Z,7.50
2023-05-22T08:55:10.459Z,7.25
2023-05-22T08:57:12.495Z,7.25
2023-05-22T08:59:14.146Z,7.28
2023-05-22T09:01:16.897Z,7.53
2023-05-22T09:03:21.643Z,6.85
2023-05-22T09:05:26.880Z,7.13
2023-05-22T09:07:29.990Z,7.32
2023-05-22T09:09:36.706Z,8.30
2023-05-22T09:11:38.714Z,7.32
2023-05-22T09:13:41.386Z,9.18
2023-05-22T09:15:43.543Z,6.65
2023-05-22T09:17:45.887Z,7.13
2023-05-22T09:19:47.703Z,8.07
2023-05-22T09:21:49.267Z,6.85
2023-05-22T09:23:51.101Z,7.45
2023-05-22T09:25:56.115Z,6.88
2023-05-22T09:27:57.636Z,6.70
2023-05-22T09:29:59.492Z,6.78
2023-05-22T09:32:01.261Z,6.80
2023-05-22T09:34:04.607Z,7.05
2023-05-22T09:36:09.038Z,6.65
2023-05-22T09:38:12.948Z,6.63
2023-05-22T09:40:14.578Z,6.32
2023-05-22T09:42:17.592Z,7.53
2023-05-22T09:44:19.240Z,7.15
2023-05-22T09:46:20.917Z,6.60
2023-05-22T09:48:22.574Z,8.13
2023-05-22T09:50:24.053Z,6.43
2023-05-22T09:52:33.498Z,6.32
2023-05-22T09:54:37.212Z,6.53
2023-05-22T09:56:40.482Z,6.28
2023-05-22T09:58:43.352Z,5.95
2023-05-22T10:00:46.141Z,5.65
2023-05-22T10:02:52.164Z,6.13
2023-05-22T10:04:54.737Z,5.75
2023-05-22T10:07:04.102Z,6.10
2023-05-22T10:09:09.364Z,6.38
2023-05-22T10:11:14.771Z,6.20
2023-05-22T10:13:17.065Z,6.80
2023-05-22T10:15:19.219Z,7.05
2023-05-22T10:17:22.153Z,6.90
2023-05-22T10:19:27.403Z,7.85
2023-05-22T10:21:30.210Z,7.28
2023-05-22T10:23:32.057Z,7.15
2023-05-22T10:25:37.647Z,6.80
2023-05-22T10:27:40.803Z,6.93
2023-05-22T10:29:55.707Z,6.75
2023-05-22T10:32:19.316Z,7.57
2023-05-22T10:34:32.760Z,5.97
2023-05-22T10:36:36.968Z,6.15
2023-05-22T10:38:57.633Z,6.85
2023-05-22T10:40:59.914Z,6.13
2023-05-22T10:43:03.143Z,6.55
2023-05-22T10:45:07.689Z,6.45
2023-05-22T10:47:11.411Z,6.30
2023-05-22T10:49:21.276Z,6.43
2023-05-22T10:51:23.512Z,6.63
2023-05-22T10:53:31.287Z,6.25
2023-05-22T10:55:32.815Z,6.60
2023-05-22T10:57:36.898Z,5.78
2023-05-22T10:59:41.535Z,5.55
2023-05-22T11:01:43.192Z,5.88
2023-05-22T11:04:00.571Z,6.50
2023-05-22T11:06:02.332Z,5.63
2023-05-22T11:08:11.765Z,6.00
2023-05-22T11:10:13.475Z,5.78
2023-05-22T11:12:25.755Z,6.78
2023-05-22T11:14:27.481Z,6.05
2023-05-22T11:16:38.275Z,5.95
2023-05-22T11:18:40.002Z,5.90
2023-05-22T11:20:42.381Z,6.28
2023-05-22T11:22:50.998Z,6.43
2023-05-22T11:24:58.633Z,5.88
2023-05-22T11:27:06.791Z,5.65
2023-05-22T11:29:08.869Z,6.05
2023-05-22T11:31:10.778Z,5.70
2023-05-22T11:33:13.273Z,6.65
2023-05-22T11:35:19.419Z,6.13
2023-05-22T11:37:21.034Z,6.93
2023-05-22T11:39:23.384Z,5.80
2023-05-22T11:41:25.248Z,6.43
2023-05-22T11:43:33.017Z,5.35
2023-05-22T11:45:37.540Z,5.93
2023-05-22T11:47:43.518Z,5.80
2023-05-22T11:49:45.529Z,5.70
2023-05-22T11:51:50.693Z,5.10
2023-05-22T11:53:53.671Z,5.50
2023-05-22T11:55:55.689Z,5.68
2023-05-22T11:57:57.968Z,5.32
2023-05-22T11:59:59.742Z,6.38
2023-05-22T12:02:01.600Z,5.72
2023-05-22T12:04:05.004Z,5.43
2023-05-22T12:06:08.618Z,5.80
2023-05-22T12:08:10.287Z,5.60
2023-05-22T12:10:14.376Z,6.85
2023-05-22T12:12:16.330Z,4.90
2023-05-22T12:14:19.168Z,5.22
2023-05-22T12:16:25.082Z,5.30
2023-05-22T12:18:27.538Z,5.38
2023-05-22T12:20:31.762Z,4.93
2023-05-22T12:22:33.600Z,4.90
2023-05-22T12:24:53.107Z,5.40
2023-05-22T12:26:56.167Z,5.25
2023-05-22T12:29:01.133Z,5.60
2023-05-22T12:31:02.677Z,6.13
2023-05-22T12:33:04.261Z,5.47
2023-05-22T12:35:06.308Z,5.25
2023-05-22T12:37:18.508Z,5.28
2023-05-22T12:39:20.351Z,5.65
2023-05-22T12:41:21.882Z,5.43
2023-05-22T12:43:25.097Z,5.68
2023-05-22T12:45:26.778Z,5.15
2023-05-22T12:47:29.993Z,5.30
2023-05-22T12:49:31.506Z,4.97
2023-05-22T12:51:33.226Z,5.30
2023-05-22T12:53:34.905Z,5.13
2023-05-22T12:55:39.315Z,4.82
2023-05-22T12:57:40.956Z,5.00
2023-05-22T12:59:43.625Z,5.03
2023-05-22T13:01:45.206Z,5.22
2023-05-22T13:03:46.944Z,5.20
2023-05-22T13:05:48.612Z,5.25
2023-05-22T13:07:50.315Z,5.07
2023-05-22T13:09:51.981Z,5.57
2023-05-22T13:11:53.922Z,5.00
2023-05-22T13:13:55.604Z,5.00
2023-05-22T13:16:00.450Z,4.95
2023-05-22T13:18:02.161Z,7.10
2023-05-22T13:20:04.451Z,4.63
2023-05-22T13:22:07.520Z,5.45
2023-05-22T13:24:09.270Z,4.93
2023-05-22T13:26:16.770Z,5.07
2023-05-22T13:28:18.349Z,4.80
2023-05-22T13:30:20.326Z,5.20
2023-05-22T13:32:22.543Z,4.47
2023-05-22T13:34:24.504Z,4.97
2023-05-22T13:36:26.364Z,5.18
2023-05-22T13:38:28.006Z,5.00
2023-05-22T13:40:29.610Z,4.60
2023-05-22T13:42:39.981Z,5.22
2023-05-22T13:44:41.680Z,5.10
2023-05-22T13:46:43.276Z,5.63
2023-05-22T13:48:44.840Z,5.70
2023-05-22T13:50:49.167Z,5.10
2023-05-22T13:52:50.940Z,4.43
2023-05-22T13:54:52.477Z,5.07
2023-05-22T13:56:54.347Z,4.90
2023-05-22T13:58:56.063Z,5.30
2023-05-22T14:00:57.599Z,5.63
2023-05-22T14:03:01.609Z,4.60
2023-05-22T14:05:03.563Z,4.97
2023-05-22T14:07:05.328Z,5.10
2023-05-22T14:09:08.844Z,4.50
2023-05-22T14:11:10.753Z,5.40
2023-05-22T14:13:12.301Z,4.68
2023-05-22T14:15:16.014Z,4.93
2023-05-22T14:17:17.540Z,4.72
2023-05-22T14:19:20.625Z,4.63
2023-05-22T14:21:22.304Z,5.05
2023-05-22T14:23:23.888Z,4.57
2023-05-22T14:25:26.425Z,5.45
2023-05-22T14:27:29.274Z,4.65
2023-05-22T14:29:31.762Z,6.82
2023-05-22T14:31:44.311Z,4.93
2023-05-22T14:33:46.000Z,5.35
2023-05-22T14:35:48.582Z,5.88
2023-05-22T14:37:50.627Z,6.07
2023-05-22T14:39:52.140Z,5.90
2023-05-22T14:41:58.085Z,5.40
2023-05-22T14:43:59.779Z,6.47
2023-05-22T14:46:05.540Z,6.45
2023-05-22T14:48:17.111Z,6.00
2023-05-22T14:50:20.636Z,5.90
2023-05-22T14:52:22.850Z,6.38
2023-05-22T14:54:27.155Z,6.95
2023-05-22T14:56:28.731Z,6.13
2023-05-22T14:58:30.313Z,6.55
2023-05-22T15:00:32.130Z,6.50
2023-05-22T15:02:33.824Z,6.47
2023-05-22T15:04:35.579Z,6.80
2023-05-22T15:06:37.871Z,7.72
2023-05-22T15:08:39.653Z,6.70
2023-05-22T15:10:41.485Z,6.65
2023-05-22T15:12:43.478Z,6.85
2023-05-22T15:14:44.991Z,6.57
2023-05-22T15:16:46.985Z,7.72
2023-05-22T15:18:48.799Z,7.88
2023-05-22T15:20:50.665Z,7.15
2023-05-22T15:22:52.284Z,7.20
2023-05-22T15:25:05.517Z,7.90
2023-05-22T15:27:07.775Z,6.65
2023-05-22T15:29:10.988Z,6.63
2023-05-22T15:31:13.387Z,6.47
2023-05-22T15:33:15.476Z,5.88
2023-05-22T15:35:17.353Z,6.22
2023-05-22T15:37:19.051Z,5.70
2023-05-22T15:39:20.635Z,6.13
2023-05-22T15:41:22.204Z,6.68
2023-05-22T15:43:25.977Z,6.03
2023-05-22T15:45:27.805Z,5.43
2023-05-22T15:47:29.993Z,6.30
2023-05-22T15:49:31.713Z,6.40
2023-05-22T15:51:33.406Z,5.18
2023-05-22T15:53:35.265Z,5.60
2023-05-22T15:55:36.900Z,5.78
2023-05-22T15:57:44.686Z,5.80
2023-05-22T15:59:50.751Z,6.85
2023-05-22T16:01:52.388Z,5.00
2023-05-22T16:03:53.976Z,4.70
2023-05-22T16:05:57.266Z,5.13
2023-05-22T16:07:58.781Z,5.20
2023-05-22T16:10:01.038Z,5.60
2023-05-22T16:12:03.948Z,5.93
2023-05-22T16:14:05.989Z,5.32
2023-05-22T16:16:08.100Z,5.03
2023-05-22T16:18:13.746Z,4.97
2023-05-22T16:20:15.532Z,5.22
2023-05-22T16:22:17.627Z,5.13
2023-05-22T16:24:19.337Z,5.22
2023-05-22T16:26:21.802Z,5.03
2023-05-22T16:28:23.509Z,5.47
2023-05-22T16:30:25.169Z,5.90
2023-05-22T16:32:26.699Z,4.63
2023-05-22T16:34:29.642Z,5.05
2023-05-22T16:36:31.668Z,6.75
2023-05-22T16:38:33.425Z,5.32
2023-05-22T16:40:34.948Z,5.03
2023-05-22T16:42:38.338Z,5.40
2023-05-22T16:44:39.966Z,4.97
2023-05-22T16:46:41.482Z,5.10
2023-05-22T16:48:43.191Z,5.63
2023-05-22T16:50:48.241Z,5.40
2023-05-22T16:52:49.784Z,5.32
2023-05-22T16:54:51.909Z,7.57
2023-05-22T16:56:53.628Z,6.18
2023-05-22T16:58:55.507Z,5.25
2023-05-22T17:00:57.570Z,5.10
2023-05-22T17:02:59.314Z,5.13
2023-05-22T17:05:01.303Z,6.00
2023-05-22T17:07:04.182Z,4.85
2023-05-22T17:09:09.968Z,4.82
2023-05-22T17:11:11.528Z,5.05
2023-05-22T17:13:20.701Z,4.57
2023-05-22T17:15:22.285Z,6.25
2023-05-22T17:17:24.149Z,5.55
2023-05-22T17:19:26.464Z,4.68
2023-05-22T17:21:28.829Z,4.93
2023-05-22T17:23:30.417Z,5.43
2023-05-22T17:25:41.824Z,5.18
2023-05-22T17:27:43.970Z,5.47
2023-05-22T17:29:45.518Z,5.38
2023-05-22T17:31:47.690Z,4.75
2023-05-22T17:33:49.425Z,4.88
2023-05-22T17:35:51.416Z,5.45
2023-05-22T17:37:52.960Z,5.00
2023-05-22T17:39:54.448Z,5.25
2023-05-22T17:42:07.521Z,5.28
2023-05-22T17:44:11.826Z,4.88
2023-05-22T17:46:13.520Z,5.32
2023-05-22T17:48:23.411Z,5.30
2023-05-22T17:50:25.450Z,5.40
2023-05-22T17:52:27.033Z,5.63
2023-05-22T17:54:35.802Z,5.20
2023-05-22T17:56:38.770Z,5.20
2023-05-22T17:58:40.665Z,5.45
2023-05-22T18:00:43.218Z,5.13
2023-05-22T18:02:44.922Z,4.82
2023-05-22T18:04:48.864Z,5.47
2023-05-22T18:06:50.361Z,5.35
2023-05-22T18:08:51.966Z,5.90
2023-05-22T18:10:55.724Z,6.00
2023-05-22T18:12:57.675Z,5.35
2023-05-22T18:14:59.752Z,6.13
2023-05-22T18:17:01.290Z,5.97
2023-05-22T18:19:03.165Z,6.43
2023-05-22T18:21:04.971Z,6.75
2023-05-22T18:23:06.560Z,5.70
2023-05-22T18:25:09.047Z,5.85
2023-05-22T18:27:10.703Z,6.75
2023-05-22T18:29:15.499Z,7.28
2023-05-22T18:31:20.273Z,9.43
2023-05-22T18:33:24.793Z,8.90
2023-05-22T18:35:26.510Z,10.73
2023-05-22T18:37:28.366Z,12.77
2023-05-22T18:39:32.952Z,13.20
2023-05-22T18:41:36.423Z,12.02
2023-05-22T18:43:42.139Z,11.85
2023-05-22T18:45:43.932Z,8.20
2023-05-22T18:47:45.958Z,8.13
2023-05-22T18:49:47.573Z,7.97
2023-05-22T18:51:49.141Z,6.85
2023-05-22T18:53:51.778Z,6.85
2023-05-22T18:55:54.192Z,10.13
2023-05-22T18:57:56.084Z,13.20
2023-05-22T18:59:57.889Z,16.52
2023-05-22T19:02:00.495Z,20.70
2023-05-22T19:04:02.057Z,19.42
2023-05-22T19:06:04.284Z,15.57
2023-05-22T19:08:06.117Z,12.45
2023-05-22T19:10:11.669Z,11.32
2023-05-22T19:12:13.238Z,8.23
2023-05-22T19:14:14.903Z,7.55
2023-05-22T19:16:19.747Z,7.25
2023-05-22T19:18:21.328Z,7.07
2023-05-22T19:20:23.691Z,7.40
2023-05-22T19:22:25.345Z,7.28
2023-05-22T19:24:28.315Z,7.57
2023-05-22T19:26:29.951Z,7.28
2023-05-22T19:28:34.125Z,8.68
2023-05-22T19:30:35.941Z,6.82
2023-05-22T19:32:37.859Z,8.05
2023-05-22T19:34:39.422Z,6.95
2023-05-22T19:36:43.773Z,7.55
2023-05-22T19:38:45.416Z,6.93
2023-05-22T19:40:47.065Z,7.07
2023-05-22T19:42:48.782Z,7.45
2023-05-22T19:44:50.500Z,7.65
2023-05-22T19:46:52.194Z,8.15
2023-05-22T19:48:56.677Z,7.85
2023-05-22T19:50:58.275Z,8.00
2023-05-22T19:53:03.178Z,10.10
2023-05-22T19:55:05.259Z,8.27
2023-05-22T19:57:16.212Z,7.05
2023-05-22T19:59:17.716Z,7.93
2023-05-22T20:01:19.352Z,7.43
2023-05-22T20:03:24.524Z,8.57
2023-05-22T20:05:29.641Z,8.35
2023-05-22T20:07:31.212Z,7.65
2023-05-22T20:09:32.784Z,9.48
2023-05-22T20:11:34.400Z,9.00
2023-05-22T20:13:39.028Z,8.48
2023-05-22T20:15:41.236Z,8.90
2023-05-22T20:17:47.708Z,8.80
2023-05-22T20:19:49.550Z,9.65
2023-05-22T20:21:58.332Z,8.13
2023-05-22T20:23:59.985Z,7.75
2023-05-22T20:26:01.764Z,8.00
2023-05-22T20:28:04.761Z,8.68
2023-05-22T20:30:11.517Z,7.53
2023-05-22T20:32:13.143Z,8.95
2023-05-22T20:34:14.889Z,8.18
2023-05-22T20:36:16.926Z,7.75
2023-05-22T20:38:18.997Z,8.38
2023-05-22T20:40:20.684Z,7.93
2023-05-22T20:42:22.917Z,7.88
2023-05-22T20:44:24.896Z,18.05
2023-05-22T20:46:26.698Z,19.45
2023-05-22T20:48:28.681Z,16.13
2023-05-22T20:50:30.311Z,12.52
2023-05-22T20:52:31.880Z,11.98
2023-05-22T20:54:36.506Z,9.90
2023-05-22T20:56:38.512Z,9.30
2023-05-22T20:58:44.445Z,9.57
2023-05-22T21:00:49.472Z,8.60
2023-05-22T21:02:54.909Z,8.50
2023-05-22T21:04:58.039Z,9.10
2023-05-22T21:06:59.614Z,9.10
2023-05-22T21:09:01.672Z,8.15
2023-05-22T21:11:03.451Z,8.48
2023-05-22T21:13:05.080Z,7.85
2023-05-22T21:15:07.448Z,7.72
2023-05-22T21:17:08.957Z,7.70
2023-05-22T21:19:10.490Z,8.73
2023-05-22T21:21:14.443Z,7.95
2023-05-22T21:23:16.126Z,9.05
2023-05-22T21:25:17.894Z,7.63
2023-05-22T21:27:19.504Z,7.43
2023-05-22T21:29:21.127Z,8.02
2023-05-22T21:31:23.126Z,7.60
2023-05-22T21:33:25.655Z,7.60
2023-05-22T21:35:27.575Z,7.40
2023-05-22T21:37:29.102Z,7.82
2023-05-22T21:39:30.777Z,8.07
2023-05-22T21:41:32.522Z,9.02
2023-05-22T21:43:36.512Z,7.25
2023-05-22T21:45:38.924Z,9.05
2023-05-22T21:47:40.735Z,7.50
2023-05-22T21:49:42.314Z,7.72
2023-05-22T21:51:44.052Z,7.65
2023-05-22T21:53:46.612Z,7.78
2023-05-22T21:55:50.859Z,7.85
2023-05-22T21:57:52.435Z,7.72
2023-05-22T21:59:54.834Z,8.82
2023-05-22T22:01:56.398Z,7.50
2023-05-22T22:03:58.098Z,10.77
2023-05-22T22:05:59.766Z,7.88
2023-05-22T22:08:01.260Z,7.95
2023-05-22T22:10:03.018Z,9.15
2023-05-22T22:12:05.077Z,6.97
2023-05-22T22:14:07.265Z,7.90
2023-05-22T22:16:08.882Z,8.07
2023-05-22T22:18:14.827Z,8.10
2023-05-22T22:20:17.408Z,7.38
2023-05-22T22:22:22.562Z,9.73
2023-05-22T22:24:24.151Z,8.15
2023-05-22T22:26:27.050Z,8.18
2023-05-22T22:28:31.297Z,7.60
2023-05-22T22:30:32.941Z,7.30
2023-05-22T22:32:35.672Z,7.65
2023-05-22T22:34:37.589Z,8.63
2023-05-22T22:36:40.324Z,7.65
2023-05-22T22:38:41.849Z,7.60
2023-05-22T22:40:52.734Z,8.13
2023-05-22T22:42:54.441Z,8.00
2023-05-22T22:44:56.194Z,8.25
2023-05-22T22:46:57.751Z,7.28
2023-05-22T22:49:01.884Z,7.60
2023-05-22T22:51:07.274Z,8.00
2023-05-22T22:53:09.017Z,7.90
2023-05-22T22:55:11.143Z,8.63
2023-05-22T22:57:12.796Z,8.15
2023-05-22T22:59:14.358Z,8.00
2023-05-22T23:01:15.988Z,7.82
2023-05-22T23:03:17.945Z,7.90
2023-05-22T23:05:25.751Z,7.78
2023-05-22T23:07:28.078Z,8.70
2023-05-22T23:09:29.620Z,7.80
2023-05-22T23:11:37.196Z,7.90
2023-05-22T23:13:41.082Z,8.20
2023-05-22T23:15:43.102Z,8.10
2023-05-22T23:17:45.001Z,7.85
2023-05-22T23:19:46.910Z,7.85
2023-05-22T23:21:52.139Z,8.55
2023-05-22T23:23:54.342Z,7.70
2023-05-22T23:25:58.141Z,7.82
2023-05-22T23:28:00.497Z,7.80
2023-05-22T23:30:04.439Z,9.77
2023-05-22T23:32:06.896Z,7.93
2023-05-22T23:34:08.377Z,7.43
2023-05-22T23:36:09.932Z,8.27
2023-05-22T23:38:14.501Z,7.38
2023-05-22T23:40:18.989Z,9.40
2023-05-22T23:42:20.602Z,7.70
2023-05-22T23:44:22.285Z,8.27
2023-05-22T23:46:24.409Z,7.38
2023-05-22T23:48:29.444Z,7.68
2023-05-22T23:50:33.774Z,8.23
2023-05-22T23:52:35.623Z,7.85
2023-05-22T23:54:37.188Z,7.80
2023-05-22T23:56:39.203Z,8.10
2023-05-22T23:58:40.809Z,8.13
